sensor_id;sensor_type;location;lat;lon;timestamp;P1;durP1;ratioP1;P2;durP2;ratioP2
22628;SDS011;11481;53.694;9.910;2023-03-11T00:00:25;3.08;;;2.03;;
22628;SDS011;11481;53.694;9.910;2023-03-11T00:02:54;5.32;;;2.85;;
22628;SDS011;11481;53.694;9.910;2023-03-11T00:05:29;12.32;;;4.50;;
22628;SDS011;11481;53.694;9.910;2023-03-11T00:08:00;3.67;;;2.28;;
22628;SDS011;11481;53.694;9.910;2023-03-11T00:10:31;6.50;;;3.83;;
22628;SDS011;11481;53.694;9.910;2023-03-11T00:13:04;5.57;;;3.42;;
22628;SDS011;11481;53.694;9.910;2023-03-11T00:15:34;6.57;;;2.90;;
22628;SDS011;11481;53.694;9.910;2023-03-11T00:18:01;3.72;;;3.03;;
22628;SDS011;11481;53.694;9.910;2023-03-11T00:20:29;5.80;;;2.30;;
22628;SDS011;11481;53.694;9.910;2023-03-11T00:23:01;7.47;;;3.50;;
22628;SDS011;11481;53.694;9.910;2023-03-11T00:25:29;7.75;;;3.22;;
22628;SDS011;11481;53.694;9.910;2023-03-11T00:27:57;3.67;;;2.85;;
22628;SDS011;11481;53.694;9.910;2023-03-11T00:30:25;4.63;;;3.80;;
22628;SDS011;11481;53.694;9.910;2023-03-11T00:32:54;8.75;;;3.97;;
22628;SDS011;11481;53.694;9.910;2023-03-11T00:35:27;3.80;;;2.22;;
22628;SDS011;11481;53.694;9.910;2023-03-11T00:37:56;6.88;;;2.53;;
22628;SDS011;11481;53.694;9.910;2023-03-11T00:40:25;6.22;;;4.28;;
22628;SDS011;11481;53.694;9.910;2023-03-11T00:42:53;3.28;;;2.65;;
22628;SDS011;11481;53.694;9.910;2023-03-11T00:45:20;6.30;;;2.78;;
22628;SDS011;11481;53.694;9.910;2023-03-11T00:47:47;7.05;;;3.50;;
22628;SDS011;11481;53.694;9.910;2023-03-11T00:50:17;4.28;;;3.13;;
22628;SDS011;11481;53.694;9.910;2023-03-11T00:52:46;1.25;;;1.15;;
22628;SDS011;11481;53.694;9.910;2023-03-11T00:55:15;6.15;;;3.83;;
22628;SDS011;11481;53.694;9.910;2023-03-11T00:57:44;5.97;;;3.08;;
22628;SDS011;11481;53.694;9.910;2023-03-11T01:00:12;17.80;;;4.63;;
22628;SDS011;11481;53.694;9.910;2023-03-11T01:02:41;16.63;;;4.00;;
22628;SDS011;11481;53.694;9.910;2023-03-11T01:05:07;9.48;;;3.42;;
22628;SDS011;11481;53.694;9.910;2023-03-11T01:07:35;5.80;;;3.40;;
22628;SDS011;11481;53.694;9.910;2023-03-11T01:10:02;8.10;;;3.55;;
22628;SDS011;11481;53.694;9.910;2023-03-11T01:12:29;6.25;;;2.50;;
22628;SDS011;11481;53.694;9.910;2023-03-11T01:14:56;4.00;;;1.85;;
22628;SDS011;11481;53.694;9.910;2023-03-11T01:17:22;5.18;;;3.35;;
22628;SDS011;11481;53.694;9.910;2023-03-11T01:19:49;3.03;;;1.88;;
22628;SDS011;11481;53.694;9.910;2023-03-11T01:22:16;10.32;;;3.13;;
22628;SDS011;11481;53.694;9.910;2023-03-11T01:24:43;4.47;;;2.70;;
22628;SDS011;11481;53.694;9.910;2023-03-11T01:27:10;6.75;;;4.18;;
22628;SDS011;11481;53.694;9.910;2023-03-11T01:29:36;4.63;;;3.47;;
22628;SDS011;11481;53.694;9.910;2023-03-11T01:32:03;10.43;;;3.17;;
22628;SDS011;11481;53.694;9.910;2023-03-11T01:34:31;4.97;;;3.22;;
22628;SDS011;11481;53.694;9.910;2023-03-11T01:37:01;4.32;;;3.05;;
22628;SDS011;11481;53.694;9.910;2023-03-11T01:39:29;4.90;;;3.50;;
22628;SDS011;11481;53.694;9.910;2023-03-11T01:41:56;2.58;;;2.17;;
22628;SDS011;11481;53.694;9.910;2023-03-11T01:44:23;7.93;;;3.75;;
22628;SDS011;11481;53.694;9.910;2023-03-11T01:49:20;3.17;;;1.90;;
22628;SDS011;11481;53.694;9.910;2023-03-11T01:51:48;7.38;;;3.28;;
22628;SDS011;11481;53.694;9.910;2023-03-11T01:54:18;3.90;;;3.00;;
22628;SDS011;11481;53.694;9.910;2023-03-11T01:56:48;7.10;;;3.75;;
22628;SDS011;11481;53.694;9.910;2023-03-11T01:59:18;5.50;;;3.80;;
22628;SDS011;11481;53.694;9.910;2023-03-11T02:01:51;6.80;;;3.95;;
22628;SDS011;11481;53.694;9.910;2023-03-11T02:04:58;3.13;;;2.70;;
22628;SDS011;11481;53.694;9.910;2023-03-11T02:07:26;11.27;;;5.38;;
22628;SDS011;11481;53.694;9.910;2023-03-11T02:09:53;5.97;;;2.47;;
22628;SDS011;11481;53.694;9.910;2023-03-11T02:12:20;4.03;;;2.63;;
22628;SDS011;11481;53.694;9.910;2023-03-11T02:14:48;12.43;;;3.45;;
22628;SDS011;11481;53.694;9.910;2023-03-11T02:17:19;8.57;;;4.32;;
22628;SDS011;11481;53.694;9.910;2023-03-11T02:23:04;4.00;;;2.83;;
22628;SDS011;11481;53.694;9.910;2023-03-11T02:25:33;6.95;;;2.70;;
22628;SDS011;11481;53.694;9.910;2023-03-11T02:28:06;4.40;;;2.95;;
22628;SDS011;11481;53.694;9.910;2023-03-11T02:30:37;3.85;;;3.03;;
22628;SDS011;11481;53.694;9.910;2023-03-11T02:33:07;3.42;;;2.90;;
22628;SDS011;11481;53.694;9.910;2023-03-11T02:35:34;3.08;;;1.63;;
22628;SDS011;11481;53.694;9.910;2023-03-11T02:38:01;9.65;;;3.05;;
22628;SDS011;11481;53.694;9.910;2023-03-11T02:40:36;4.05;;;2.78;;
22628;SDS011;11481;53.694;9.910;2023-03-11T02:43:12;3.80;;;3.20;;
22628;SDS011;11481;53.694;9.910;2023-03-11T02:45:43;8.55;;;5.07;;
22628;SDS011;11481;53.694;9.910;2023-03-11T02:48:12;4.38;;;2.67;;
22628;SDS011;11481;53.694;9.910;2023-03-11T02:50:40;5.28;;;3.30;;
22628;SDS011;11481;53.694;9.910;2023-03-11T02:53:08;7.35;;;3.17;;
22628;SDS011;11481;53.694;9.910;2023-03-11T02:55:35;7.68;;;2.25;;
22628;SDS011;11481;53.694;9.910;2023-03-11T02:58:02;5.47;;;3.60;;
22628;SDS011;11481;53.694;9.910;2023-03-11T03:00:28;5.38;;;3.75;;
22628;SDS011;11481;53.694;9.910;2023-03-11T03:02:55;6.82;;;3.40;;
22628;SDS011;11481;53.694;9.910;2023-03-11T03:05:22;5.05;;;3.05;;
22628;SDS011;11481;53.694;9.910;2023-03-11T03:07:49;7.63;;;3.33;;
22628;SDS011;11481;53.694;9.910;2023-03-11T03:10:17;4.15;;;3.40;;
22628;SDS011;11481;53.694;9.910;2023-03-11T03:12:46;3.45;;;2.95;;
22628;SDS011;11481;53.694;9.910;2023-03-11T03:15:13;3.50;;;2.42;;
22628;SDS011;11481;53.694;9.910;2023-03-11T03:17:41;4.20;;;2.75;;
22628;SDS011;11481;53.694;9.910;2023-03-11T03:20:08;4.43;;;2.92;;
22628;SDS011;11481;53.694;9.910;2023-03-11T03:22:37;2.05;;;1.85;;
22628;SDS011;11481;53.694;9.910;2023-03-11T03:25:05;6.20;;;2.63;;
22628;SDS011;11481;53.694;9.910;2023-03-11T03:27:32;5.82;;;3.65;;
22628;SDS011;11481;53.694;9.910;2023-03-11T03:29:59;5.25;;;3.45;;
22628;SDS011;11481;53.694;9.910;2023-03-11T03:32:26;4.93;;;4.00;;
22628;SDS011;11481;53.694;9.910;2023-03-11T03:34:53;5.63;;;3.42;;
22628;SDS011;11481;53.694;9.910;2023-03-11T03:37:24;7.40;;;3.78;;
22628;SDS011;11481;53.694;9.910;2023-03-11T03:39:53;3.83;;;2.28;;
22628;SDS011;11481;53.694;9.910;2023-03-11T03:42:20;3.20;;;2.83;;
22628;SDS011;11481;53.694;9.910;2023-03-11T03:44:46;6.25;;;3.35;;
22628;SDS011;11481;53.694;9.910;2023-03-11T03:47:13;4.07;;;2.67;;
22628;SDS011;11481;53.694;9.910;2023-03-11T03:49:40;3.20;;;2.20;;
22628;SDS011;11481;53.694;9.910;2023-03-11T03:52:07;4.00;;;2.10;;
22628;SDS011;11481;53.694;9.910;2023-03-11T03:54:35;6.75;;;2.80;;
22628;SDS011;11481;53.694;9.910;2023-03-11T03:57:03;4.25;;;2.55;;
22628;SDS011;11481;53.694;9.910;2023-03-11T03:59:30;4.60;;;3.10;;
22628;SDS011;11481;53.694;9.910;2023-03-11T04:01:57;1.83;;;1.70;;
22628;SDS011;11481;53.694;9.910;2023-03-11T04:04:24;2.85;;;2.28;;
22628;SDS011;11481;53.694;9.910;2023-03-11T04:06:51;3.38;;;2.50;;
22628;SDS011;11481;53.694;9.910;2023-03-11T04:09:18;3.13;;;2.15;;
22628;SDS011;11481;53.694;9.910;2023-03-11T04:11:45;2.88;;;2.08;;
22628;SDS011;11481;53.694;9.910;2023-03-11T04:14:12;3.78;;;3.30;;
22628;SDS011;11481;53.694;9.910;2023-03-11T04:16:38;5.57;;;2.58;;
22628;SDS011;11481;53.694;9.910;2023-03-11T04:19:05;4.80;;;2.78;;
22628;SDS011;11481;53.694;9.910;2023-03-11T04:21:32;4.20;;;1.90;;
22628;SDS011;11481;53.694;9.910;2023-03-11T04:23:59;4.03;;;2.85;;
22628;SDS011;11481;53.694;9.910;2023-03-11T04:26:25;4.07;;;2.00;;
22628;SDS011;11481;53.694;9.910;2023-03-11T04:28:53;4.30;;;2.58;;
22628;SDS011;11481;53.694;9.910;2023-03-11T04:31:20;3.60;;;2.58;;
22628;SDS011;11481;53.694;9.910;2023-03-11T04:33:46;5.55;;;2.03;;
22628;SDS011;11481;53.694;9.910;2023-03-11T04:36:13;3.85;;;2.35;;
22628;SDS011;11481;53.694;9.910;2023-03-11T04:38:40;4.03;;;2.97;;
22628;SDS011;11481;53.694;9.910;2023-03-11T04:41:06;4.35;;;2.75;;
22628;SDS011;11481;53.694;9.910;2023-03-11T04:43:33;2.50;;;1.60;;
22628;SDS011;11481;53.694;9.910;2023-03-11T04:46:00;9.20;;;3.60;;
22628;SDS011;11481;53.694;9.910;2023-03-11T04:48:27;6.43;;;3.05;;
22628;SDS011;11481;53.694;9.910;2023-03-11T04:50:54;6.65;;;1.63;;
22628;SDS011;11481;53.694;9.910;2023-03-11T04:53:21;3.80;;;2.67;;
22628;SDS011;11481;53.694;9.910;2023-03-11T04:55:48;4.53;;;2.42;;
22628;SDS011;11481;53.694;9.910;2023-03-11T04:58:15;3.22;;;2.75;;
22628;SDS011;11481;53.694;9.910;2023-03-11T05:00:42;6.95;;;3.28;;
22628;SDS011;11481;53.694;9.910;2023-03-11T05:03:09;3.00;;;1.85;;
22628;SDS011;11481;53.694;9.910;2023-03-11T05:05:36;4.18;;;2.78;;
22628;SDS011;11481;53.694;9.910;2023-03-11T05:08:03;3.40;;;2.40;;
22628;SDS011;11481;53.694;9.910;2023-03-11T05:10:30;2.95;;;2.20;;
22628;SDS011;11481;53.694;9.910;2023-03-11T05:12:57;4.85;;;2.35;;
22628;SDS011;11481;53.694;9.910;2023-03-11T05:15:27;2.50;;;1.40;;
22628;SDS011;11481;53.694;9.910;2023-03-11T05:17:56;3.40;;;2.03;;
22628;SDS011;11481;53.694;9.910;2023-03-11T05:20:22;5.22;;;3.28;;
22628;SDS011;11481;53.694;9.910;2023-03-11T05:22:49;6.90;;;3.17;;
22628;SDS011;11481;53.694;9.910;2023-03-11T05:25:16;14.23;;;3.15;;
22628;SDS011;11481;53.694;9.910;2023-03-11T05:27:43;2.28;;;1.75;;
22628;SDS011;11481;53.694;9.910;2023-03-11T05:30:10;3.45;;;2.90;;
22628;SDS011;11481;53.694;9.910;2023-03-11T05:32:37;5.55;;;3.28;;
22628;SDS011;11481;53.694;9.910;2023-03-11T05:35:04;18.13;;;2.15;;
22628;SDS011;11481;53.694;9.910;2023-03-11T05:37:30;3.78;;;2.67;;
22628;SDS011;11481;53.694;9.910;2023-03-11T05:39:57;2.47;;;1.80;;
22628;SDS011;11481;53.694;9.910;2023-03-11T05:42:24;3.42;;;2.80;;
22628;SDS011;11481;53.694;9.910;2023-03-11T05:44:51;4.32;;;2.90;;
22628;SDS011;11481;53.694;9.910;2023-03-11T05:47:18;3.92;;;1.65;;
22628;SDS011;11481;53.694;9.910;2023-03-11T05:49:48;2.70;;;1.40;;
22628;SDS011;11481;53.694;9.910;2023-03-11T05:52:15;5.13;;;2.78;;
22628;SDS011;11481;53.694;9.910;2023-03-11T05:54:42;6.78;;;2.67;;
22628;SDS011;11481;53.694;9.910;2023-03-11T05:57:09;2.95;;;1.73;;
22628;SDS011;11481;53.694;9.910;2023-03-11T05:59:36;5.30;;;2.85;;
22628;SDS011;11481;53.694;9.910;2023-03-11T06:02:03;9.68;;;2.15;;
22628;SDS011;11481;53.694;9.910;2023-03-11T06:04:30;7.20;;;1.67;;
22628;SDS011;11481;53.694;9.910;2023-03-11T06:06:57;10.00;;;3.40;;
22628;SDS011;11481;53.694;9.910;2023-03-11T06:09:24;2.78;;;1.40;;
22628;SDS011;11481;53.694;9.910;2023-03-11T06:11:51;2.50;;;1.90;;
22628;SDS011;11481;53.694;9.910;2023-03-11T06:14:18;4.63;;;2.92;;
22628;SDS011;11481;53.694;9.910;2023-03-11T06:16:45;5.88;;;2.58;;
22628;SDS011;11481;53.694;9.910;2023-03-11T06:19:11;4.95;;;1.90;;
22628;SDS011;11481;53.694;9.910;2023-03-11T06:21:38;7.05;;;3.35;;
22628;SDS011;11481;53.694;9.910;2023-03-11T06:24:05;5.57;;;3.38;;
22628;SDS011;11481;53.694;9.910;2023-03-11T06:26:32;4.97;;;2.83;;
22628;SDS011;11481;53.694;9.910;2023-03-11T06:28:59;4.45;;;2.95;;
22628;SDS011;11481;53.694;9.910;2023-03-11T06:31:26;6.85;;;4.05;;
22628;SDS011;11481;53.694;9.910;2023-03-11T06:33:54;5.25;;;2.88;;
22628;SDS011;11481;53.694;9.910;2023-03-11T06:36:21;6.00;;;3.22;;
22628;SDS011;11481;53.694;9.910;2023-03-11T06:38:50;2.83;;;1.52;;
22628;SDS011;11481;53.694;9.910;2023-03-11T06:41:17;5.35;;;2.28;;
22628;SDS011;11481;53.694;9.910;2023-03-11T06:43:44;8.15;;;2.40;;
22628;SDS011;11481;53.694;9.910;2023-03-11T06:46:14;4.15;;;2.55;;
22628;SDS011;11481;53.694;9.910;2023-03-11T06:48:43;2.92;;;1.23;;
22628;SDS011;11481;53.694;9.910;2023-03-11T06:51:11;6.40;;;3.78;;
22628;SDS011;11481;53.694;9.910;2023-03-11T06:53:39;5.93;;;3.25;;
22628;SDS011;11481;53.694;9.910;2023-03-11T06:56:10;3.25;;;2.63;;
22628;SDS011;11481;53.694;9.910;2023-03-11T06:58:38;3.63;;;2.03;;
22628;SDS011;11481;53.694;9.910;2023-03-11T07:01:07;4.95;;;2.65;;
22628;SDS011;11481;53.694;9.910;2023-03-11T07:03:37;3.05;;;1.52;;
22628;SDS011;11481;53.694;9.910;2023-03-11T07:06:04;3.85;;;2.15;;
22628;SDS011;11481;53.694;9.910;2023-03-11T07:08:31;5.32;;;3.65;;
22628;SDS011;11481;53.694;9.910;2023-03-11T07:11:01;6.75;;;2.92;;
22628;SDS011;11481;53.694;9.910;2023-03-11T07:13:33;2.88;;;2.30;;
22628;SDS011;11481;53.694;9.910;2023-03-11T07:16:01;5.32;;;2.25;;
22628;SDS011;11481;53.694;9.910;2023-03-11T07:18:29;2.63;;;1.30;;
22628;SDS011;11481;53.694;9.910;2023-03-11T07:21:00;6.88;;;3.10;;
22628;SDS011;11481;53.694;9.910;2023-03-11T07:23:28;2.38;;;1.80;;
22628;SDS011;11481;53.694;9.910;2023-03-11T07:25:55;4.70;;;2.90;;
22628;SDS011;11481;53.694;9.910;2023-03-11T07:28:22;1.75;;;1.60;;
22628;SDS011;11481;53.694;9.910;2023-03-11T07:30:51;3.40;;;1.98;;
22628;SDS011;11481;53.694;9.910;2023-03-11T07:33:18;2.65;;;2.45;;
22628;SDS011;11481;53.694;9.910;2023-03-11T07:35:46;2.40;;;1.50;;
22628;SDS011;11481;53.694;9.910;2023-03-11T07:38:15;4.43;;;2.00;;
22628;SDS011;11481;53.694;9.910;2023-03-11T07:40:43;0.88;;;0.70;;
22628;SDS011;11481;53.694;9.910;2023-03-11T07:43:11;4.72;;;2.00;;
22628;SDS011;11481;53.694;9.910;2023-03-11T07:45:38;1.98;;;1.67;;
22628;SDS011;11481;53.694;9.910;2023-03-11T07:48:04;2.45;;;1.15;;
22628;SDS011;11481;53.694;9.910;2023-03-11T07:50:31;6.72;;;3.40;;
22628;SDS011;11481;53.694;9.910;2023-03-11T07:52:58;6.40;;;2.92;;
22628;SDS011;11481;53.694;9.910;2023-03-11T07:55:25;2.38;;;1.90;;
22628;SDS011;11481;53.694;9.910;2023-03-11T07:57:52;3.53;;;1.98;;
22628;SDS011;11481;53.694;9.910;2023-03-11T08:00:19;4.30;;;2.58;;
22628;SDS011;11481;53.694;9.910;2023-03-11T08:02:46;3.95;;;2.58;;
22628;SDS011;11481;53.694;9.910;2023-03-11T08:05:13;2.15;;;2.00;;
22628;SDS011;11481;53.694;9.910;2023-03-11T08:07:40;5.00;;;2.30;;
22628;SDS011;11481;53.694;9.910;2023-03-11T08:10:07;2.03;;;1.85;;
22628;SDS011;11481;53.694;9.910;2023-03-11T08:12:34;6.45;;;3.10;;
22628;SDS011;11481;53.694;9.910;2023-03-11T08:15:02;3.85;;;2.00;;
22628;SDS011;11481;53.694;9.910;2023-03-11T08:17:29;3.55;;;2.30;;
22628;SDS011;11481;53.694;9.910;2023-03-11T08:19:56;2.03;;;1.52;;
22628;SDS011;11481;53.694;9.910;2023-03-11T08:22:22;2.00;;;1.23;;
22628;SDS011;11481;53.694;9.910;2023-03-11T08:24:50;2.92;;;1.80;;
22628;SDS011;11481;53.694;9.910;2023-03-11T08:27:18;4.38;;;1.50;;
22628;SDS011;11481;53.694;9.910;2023-03-11T08:29:44;3.42;;;2.03;;
22628;SDS011;11481;53.694;9.910;2023-03-11T08:32:11;2.88;;;2.00;;
22628;SDS011;11481;53.694;9.910;2023-03-11T08:34:38;8.90;;;2.13;;
22628;SDS011;11481;53.694;9.910;2023-03-11T08:37:05;2.67;;;2.13;;
22628;SDS011;11481;53.694;9.910;2023-03-11T08:39:32;7.05;;;2.00;;
22628;SDS011;11481;53.694;9.910;2023-03-11T08:41:59;7.07;;;1.77;;
22628;SDS011;11481;53.694;9.910;2023-03-11T08:44:27;5.07;;;2.67;;
22628;SDS011;11481;53.694;9.910;2023-03-11T08:46:54;5.47;;;2.97;;
22628;SDS011;11481;53.694;9.910;2023-03-11T08:49:21;1.17;;;0.95;;
22628;SDS011;11481;53.694;9.910;2023-03-11T08:51:47;5.20;;;2.25;;
22628;SDS011;11481;53.694;9.910;2023-03-11T08:54:16;2.72;;;2.05;;
22628;SDS011;11481;53.694;9.910;2023-03-11T08:56:43;2.42;;;1.73;;
22628;SDS011;11481;53.694;9.910;2023-03-11T08:59:10;2.92;;;1.25;;
22628;SDS011;11481;53.694;9.910;2023-03-11T09:01:36;2.47;;;1.92;;
22628;SDS011;11481;53.694;9.910;2023-03-11T09:04:03;1.80;;;1.50;;
22628;SDS011;11481;53.694;9.910;2023-03-11T09:06:31;1.88;;;1.33;;
22628;SDS011;11481;53.694;9.910;2023-03-11T09:08:57;3.38;;;1.27;;
22628;SDS011;11481;53.694;9.910;2023-03-11T09:11:24;2.30;;;1.50;;
22628;SDS011;11481;53.694;9.910;2023-03-11T09:13:51;5.05;;;1.35;;
22628;SDS011;11481;53.694;9.910;2023-03-11T09:16:20;1.40;;;0.88;;
22628;SDS011;11481;53.694;9.910;2023-03-11T09:18:48;2.53;;;1.88;;
22628;SDS011;11481;53.694;9.910;2023-03-11T09:21:16;4.35;;;1.55;;
22628;SDS011;11481;53.694;9.910;2023-03-11T09:23:42;5.80;;;1.90;;
22628;SDS011;11481;53.694;9.910;2023-03-11T09:26:10;2.38;;;1.40;;
22628;SDS011;11481;53.694;9.910;2023-03-11T09:28:38;1.23;;;0.77;;
22628;SDS011;11481;53.694;9.910;2023-03-11T09:31:05;3.03;;;0.82;;
22628;SDS011;11481;53.694;9.910;2023-03-11T09:33:39;4.93;;;1.38;;
22628;SDS011;11481;53.694;9.910;2023-03-11T09:36:07;2.17;;;1.05;;
22628;SDS011;11481;53.694;9.910;2023-03-11T09:38:40;1.13;;;0.73;;
22628;SDS011;11481;53.694;9.910;2023-03-11T09:41:18;4.97;;;1.25;;
22628;SDS011;11481;53.694;9.910;2023-03-11T09:52:18;1.38;;;0.95;;
22628;SDS011;11481;53.694;9.910;2023-03-11T09:54:53;2.63;;;1.15;;
22628;SDS011;11481;53.694;9.910;2023-03-11T09:57:22;1.85;;;1.38;;
22628;SDS011;11481;53.694;9.910;2023-03-11T09:59:59;6.32;;;1.15;;
22628;SDS011;11481;53.694;9.910;2023-03-11T10:02:29;1.35;;;1.13;;
22628;SDS011;11481;53.694;9.910;2023-03-11T10:05:00;1.20;;;0.68;;
22628;SDS011;11481;53.694;9.910;2023-03-11T10:07:39;1.20;;;0.80;;
22628;SDS011;11481;53.694;9.910;2023-03-11T10:10:13;2.72;;;1.15;;
22628;SDS011;11481;53.694;9.910;2023-03-11T10:13:28;2.15;;;1.00;;
22628;SDS011;11481;53.694;9.910;2023-03-11T10:15:51;1.90;;;0.80;;
22628;SDS011;11481;53.694;9.910;2023-03-11T10:18:41;2.90;;;1.10;;
22628;SDS011;11481;53.694;9.910;2023-03-11T10:24:27;1.77;;;0.88;;
22628;SDS011;11481;53.694;9.910;2023-03-11T10:27:30;4.00;;;0.80;;
22628;SDS011;11481;53.694;9.910;2023-03-11T10:30:22;6.13;;;1.98;;
22628;SDS011;11481;53.694;9.910;2023-03-11T10:33:01;2.65;;;1.13;;
22628;SDS011;11481;53.694;9.910;2023-03-11T10:35:39;1.52;;;1.20;;
22628;SDS011;11481;53.694;9.910;2023-03-11T10:38:13;2.10;;;0.77;;
22628;SDS011;11481;53.694;9.910;2023-03-11T10:40:47;1.58;;;0.93;;
22628;SDS011;11481;53.694;9.910;2023-03-11T10:43:18;1.65;;;0.98;;
22628;SDS011;11481;53.694;9.910;2023-03-11T10:45:52;3.95;;;1.02;;
22628;SDS011;11481;53.694;9.910;2023-03-11T10:48:20;2.15;;;1.00;;
22628;SDS011;11481;53.694;9.910;2023-03-11T10:53:52;1.48;;;0.90;;
22628;SDS011;11481;53.694;9.910;2023-03-11T10:56:31;1.85;;;1.02;;
22628;SDS011;11481;53.694;9.910;2023-03-11T11:01:55;1.77;;;0.80;;
22628;SDS011;11481;53.694;9.910;2023-03-11T11:04:27;4.53;;;1.10;;
22628;SDS011;11481;53.694;9.910;2023-03-11T11:07:50;1.60;;;1.05;;
22628;SDS011;11481;53.694;9.910;2023-03-11T11:10:11;2.72;;;1.27;;
22628;SDS011;11481;53.694;9.910;2023-03-11T11:15:33;3.38;;;1.35;;
22628;SDS011;11481;53.694;9.910;2023-03-11T11:18:05;4.25;;;1.25;;
22628;SDS011;11481;53.694;9.910;2023-03-11T11:20:53;1.38;;;0.73;;
22628;SDS011;11481;53.694;9.910;2023-03-11T11:23:33;4.05;;;1.25;;
22628;SDS011;11481;53.694;9.910;2023-03-11T11:26:05;1.85;;;0.88;;
22628;SDS011;11481;53.694;9.910;2023-03-11T11:31:34;5.50;;;0.93;;
22628;SDS011;11481;53.694;9.910;2023-03-11T11:34:01;2.00;;;0.88;;
22628;SDS011;11481;53.694;9.910;2023-03-11T11:36:30;1.55;;;0.65;;
22628;SDS011;11481;53.694;9.910;2023-03-11T11:38:59;1.58;;;0.82;;
22628;SDS011;11481;53.694;9.910;2023-03-11T11:41:30;0.90;;;0.43;;
22628;SDS011;11481;53.694;9.910;2023-03-11T11:44:00;1.23;;;0.80;;
22628;SDS011;11481;53.694;9.910;2023-03-11T11:46:35;3.00;;;1.05;;
22628;SDS011;11481;53.694;9.910;2023-03-11T11:51:50;3.05;;;0.90;;
22628;SDS011;11481;53.694;9.910;2023-03-11T11:54:30;1.98;;;0.98;;
22628;SDS011;11481;53.694;9.910;2023-03-11T11:57:12;1.23;;;0.65;;
22628;SDS011;11481;53.694;9.910;2023-03-11T11:59:44;1.58;;;0.82;;
22628;SDS011;11481;53.694;9.910;2023-03-11T12:02:18;1.00;;;0.85;;
22628;SDS011;11481;53.694;9.910;2023-03-11T12:13:16;0.32;;;0.20;;
22628;SDS011;11481;53.694;9.910;2023-03-11T12:16:02;1.77;;;0.40;;
22628;SDS011;11481;53.694;9.910;2023-03-11T12:18:51;18.42;;;0.85;;
22628;SDS011;11481;53.694;9.910;2023-03-11T12:21:32;3.47;;;0.38;;
22628;SDS011;11481;53.694;9.910;2023-03-11T12:27:32;0.93;;;0.35;;
22628;SDS011;11481;53.694;9.910;2023-03-11T12:30:22;2.80;;;0.93;;
22628;SDS011;11481;53.694;9.910;2023-03-11T12:32:55;1.02;;;0.60;;
22628;SDS011;11481;53.694;9.910;2023-03-11T12:35:28;2.78;;;0.40;;
22628;SDS011;11481;53.694;9.910;2023-03-11T12:38:17;0.30;;;0.17;;
22628;SDS011;11481;53.694;9.910;2023-03-11T12:46:02;0.63;;;0.13;;
22628;SDS011;11481;53.694;9.910;2023-03-11T12:56:51;0.63;;;0.22;;
22628;SDS011;11481;53.694;9.910;2023-03-11T13:02:34;2.58;;;0.15;;
22628;SDS011;11481;53.694;9.910;2023-03-11T13:05:30;2.53;;;0.10;;
22628;SDS011;11481;53.694;9.910;2023-03-11T13:08:08;0.50;;;0.20;;
22628;SDS011;11481;53.694;9.910;2023-03-11T13:10:42;0.50;;;0.20;;
22628;SDS011;11481;53.694;9.910;2023-03-11T13:15:56;0.82;;;0.30;;
22628;SDS011;11481;53.694;9.910;2023-03-11T13:18:24;0.40;;;0.10;;
22628;SDS011;11481;53.694;9.910;2023-03-11T13:20:53;1.27;;;0.30;;
22628;SDS011;11481;53.694;9.910;2023-03-11T13:23:23;4.03;;;0.30;;
22628;SDS011;11481;53.694;9.910;2023-03-11T13:34:29;2.85;;;0.35;;
22628;SDS011;11481;53.694;9.910;2023-03-11T13:37:11;4.60;;;0.47;;
22628;SDS011;11481;53.694;9.910;2023-03-11T13:43:04;1.85;;;0.20;;
22628;SDS011;11481;53.694;9.910;2023-03-11T13:45:39;0.68;;;0.30;;
22628;SDS011;11481;53.694;9.910;2023-03-11T13:48:15;0.20;;;0.10;;
22628;SDS011;11481;53.694;9.910;2023-03-11T13:50:55;1.40;;;0.73;;
22628;SDS011;11481;53.694;9.910;2023-03-11T13:53:43;0.50;;;0.10;;
22628;SDS011;11481;53.694;9.910;2023-03-11T13:56:17;0.95;;;0.25;;
22628;SDS011;11481;53.694;9.910;2023-03-11T13:58:52;0.38;;;0.10;;
22628;SDS011;11481;53.694;9.910;2023-03-11T14:01:19;5.13;;;0.57;;
22628;SDS011;11481;53.694;9.910;2023-03-11T14:03:46;0.75;;;0.10;;
22628;SDS011;11481;53.694;9.910;2023-03-11T14:06:14;0.40;;;0.20;;
22628;SDS011;11481;53.694;9.910;2023-03-11T14:08:54;3.33;;;0.50;;
22628;SDS011;11481;53.694;9.910;2023-03-11T14:11:26;0.40;;;0.20;;
22628;SDS011;11481;53.694;9.910;2023-03-11T14:13:56;3.17;;;0.30;;
22628;SDS011;11481;53.694;9.910;2023-03-11T14:16:30;1.27;;;0.40;;
22628;SDS011;11481;53.694;9.910;2023-03-11T14:19:05;0.30;;;0.20;;
22628;SDS011;11481;53.694;9.910;2023-03-11T14:21:41;0.43;;;0.28;;
22628;SDS011;11481;53.694;9.910;2023-03-11T14:24:14;2.35;;;0.40;;
22628;SDS011;11481;53.694;9.910;2023-03-11T14:26:43;1.70;;;0.10;;
22628;SDS011;11481;53.694;9.910;2023-03-11T14:29:16;2.13;;;0.20;;
22628;SDS011;11481;53.694;9.910;2023-03-11T14:31:45;0.38;;;0.10;;
22628;SDS011;11481;53.694;9.910;2023-03-11T14:34:17;0.30;;;0.10;;
22628;SDS011;11481;53.694;9.910;2023-03-11T14:39:32;0.15;;;0.15;;
22628;SDS011;11481;53.694;9.910;2023-03-11T14:42:20;3.83;;;0.35;;
22628;SDS011;11481;53.694;9.910;2023-03-11T14:47:46;0.47;;;0.20;;
22628;SDS011;11481;53.694;9.910;2023-03-11T14:50:33;0.00;;;0.00;;
22628;SDS011;11481;53.694;9.910;2023-03-11T14:53:02;0.50;;;0.20;;
22628;SDS011;11481;53.694;9.910;2023-03-11T14:55:35;0.20;;;0.10;;
22628;SDS011;11481;53.694;9.910;2023-03-11T14:58:09;0.43;;;0.32;;
22628;SDS011;11481;53.694;9.910;2023-03-11T15:00:37;1.50;;;0.32;;
22628;SDS011;11481;53.694;9.910;2023-03-11T15:05:57;0.15;;;0.10;;
22628;SDS011;11481;53.694;9.910;2023-03-11T15:08:30;2.40;;;0.25;;
22628;SDS011;11481;53.694;9.910;2023-03-11T15:11:06;0.85;;;0.40;;
22628;SDS011;11481;53.694;9.910;2023-03-11T15:13:44;1.63;;;0.43;;
22628;SDS011;11481;53.694;9.910;2023-03-11T15:18:47;1.60;;;0.28;;
22628;SDS011;11481;53.694;9.910;2023-03-11T15:21:17;0.95;;;0.40;;
22628;SDS011;11481;53.694;9.910;2023-03-11T15:24:02;1.13;;;0.20;;
22628;SDS011;11481;53.694;9.910;2023-03-11T15:26:31;1.10;;;0.28;;
22628;SDS011;11481;53.694;9.910;2023-03-11T15:29:01;1.45;;;0.50;;
22628;SDS011;11481;53.694;9.910;2023-03-11T15:31:33;0.65;;;0.30;;
22628;SDS011;11481;53.694;9.910;2023-03-11T15:34:08;0.50;;;0.30;;
22628;SDS011;11481;53.694;9.910;2023-03-11T15:36:39;3.63;;;0.57;;
22628;SDS011;11481;53.694;9.910;2023-03-11T15:41:59;0.98;;;0.25;;
22628;SDS011;11481;53.694;9.910;2023-03-11T15:44:40;0.65;;;0.20;;
22628;SDS011;11481;53.694;9.910;2023-03-11T15:47:25;2.53;;;0.10;;
22628;SDS011;11481;53.694;9.910;2023-03-11T15:49:52;0.10;;;0.10;;
22628;SDS011;11481;53.694;9.910;2023-03-11T15:52:19;0.15;;;0.15;;
22628;SDS011;11481;53.694;9.910;2023-03-11T15:54:49;0.82;;;0.13;;
22628;SDS011;11481;53.694;9.910;2023-03-11T15:57:23;0.47;;;0.30;;
22628;SDS011;11481;53.694;9.910;2023-03-11T15:59:52;0.30;;;0.30;;
22628;SDS011;11481;53.694;9.910;2023-03-11T16:02:22;2.15;;;0.43;;
22628;SDS011;11481;53.694;9.910;2023-03-11T16:04:51;2.05;;;0.32;;
22628;SDS011;11481;53.694;9.910;2023-03-11T16:07:18;0.50;;;0.22;;
22628;SDS011;11481;53.694;9.910;2023-03-11T16:10:04;0.38;;;0.20;;
22628;SDS011;11481;53.694;9.910;2023-03-11T16:12:32;0.68;;;0.60;;
22628;SDS011;11481;53.694;9.910;2023-03-11T16:14:59;0.77;;;0.60;;
22628;SDS011;11481;53.694;9.910;2023-03-11T16:17:28;0.20;;;0.13;;
22628;SDS011;11481;53.694;9.910;2023-03-11T16:20:13;0.73;;;0.60;;
22628;SDS011;11481;53.694;9.910;2023-03-11T16:22:40;3.50;;;0.95;;
22628;SDS011;11481;53.694;9.910;2023-03-11T16:25:09;0.68;;;0.30;;
22628;SDS011;11481;53.694;9.910;2023-03-11T16:27:46;0.55;;;0.30;;
22628;SDS011;11481;53.694;9.910;2023-03-11T16:30:14;1.08;;;0.20;;
22628;SDS011;11481;53.694;9.910;2023-03-11T16:32:42;4.93;;;1.00;;
22628;SDS011;11481;53.694;9.910;2023-03-11T16:35:09;2.88;;;0.40;;